sensor_id;sensor_type;location;lat;lon;timestamp;pressure;altitude;pressure_sealevel;temperature
68939;BMP180;59064;45.294;11.816;2023-02-15T00:01:54;102823.00;;;4.70
68939;BMP180;59064;45.294;11.816;2023-02-15T00:04:22;102819.60;;;4.78
68939;BMP180;59064;45.294;11.816;2023-02-15T00:06:48;102824.40;;;4.80
68939;BMP180;59064;45.294;11.816;2023-02-15T00:09:14;102824.60;;;4.80
68939;BMP180;59064;45.294;11.816;2023-02-15T00:11:40;102828.00;;;4.80
68939;BMP180;59064;45.294;11.816;2023-02-15T00:14:20;102819.00;;;4.84
68939;BMP180;59064;45.294;11.816;2023-02-15T00:16:47;102819.80;;;4.90
68939;BMP180;59064;45.294;11.816;2023-02-15T00:19:15;102820.80;;;4.90
68939;BMP180;59064;45.294;11.816;2023-02-15T00:21:41;102820.20;;;4.84
68939;BMP180;59064;45.294;11.816;2023-02-15T00:24:08;102822.60;;;4.80
68939;BMP180;59064;45.294;11.816;2023-02-15T00:26:34;102820.80;;;4.80
68939;BMP180;59064;45.294;11.816;2023-02-15T00:29:01;102819.80;;;4.70
68939;BMP180;59064;45.294;11.816;2023-02-15T00:31:29;102815.20;;;4.60
68939;BMP180;59064;45.294;11.816;2023-02-15T00:36:32;102810.80;;;4.32
68939;BMP180;59064;45.294;11.816;2023-02-15T00:38:58;102802.80;;;4.20
68939;BMP180;59064;45.294;11.816;2023-02-15T00:41:23;102798.40;;;4.00
68939;BMP180;59064;45.294;11.816;2023-02-15T00:43:49;102797.20;;;3.84
68939;BMP180;59064;45.294;11.816;2023-02-15T00:46:14;102794.80;;;3.70
68939;BMP180;59064;45.294;11.816;2023-02-15T00:48:40;102796.20;;;3.60
68939;BMP180;59064;45.294;11.816;2023-02-15T00:51:05;102790.00;;;3.50
68939;BMP180;59064;45.294;11.816;2023-02-15T00:53:31;102788.40;;;3.50
68939;BMP180;59064;45.294;11.816;2023-02-15T00:55:57;102785.00;;;3.50
68939;BMP180;59064;45.294;11.816;2023-02-15T00:58:24;102787.40;;;3.50
68939;BMP180;59064;45.294;11.816;2023-02-15T01:00:50;102781.20;;;3.50
68939;BMP180;59064;45.294;11.816;2023-02-15T01:03:17;102782.00;;;3.50
68939;BMP180;59064;45.294;11.816;2023-02-15T01:05:43;102770.40;;;3.50
68939;BMP180;59064;45.294;11.816;2023-02-15T01:08:09;102771.80;;;3.40
68939;BMP180;59064;45.294;11.816;2023-02-15T01:10:35;102765.20;;;3.32
68939;BMP180;59064;45.294;11.816;2023-02-15T01:13:01;102768.80;;;3.30
68939;BMP180;59064;45.294;11.816;2023-02-15T01:15:28;102767.40;;;3.30
68939;BMP180;59064;45.294;11.816;2023-02-15T01:17:53;102764.20;;;3.30
68939;BMP180;59064;45.294;11.816;2023-02-15T01:20:26;102763.80;;;3.34
68939;BMP180;59064;45.294;11.816;2023-02-15T01:22:52;102768.40;;;3.38
68939;BMP180;59064;45.294;11.816;2023-02-15T01:25:20;102770.20;;;3.30
68939;BMP180;59064;45.294;11.816;2023-02-15T01:27:46;102765.20;;;3.30
68939;BMP180;59064;45.294;11.816;2023-02-15T01:30:12;102766.40;;;3.20
68939;BMP180;59064;45.294;11.816;2023-02-15T01:32:38;102767.00;;;3.16
68939;BMP180;59064;45.294;11.816;2023-02-15T01:35:04;102764.00;;;3.10
68939;BMP180;59064;45.294;11.816;2023-02-15T01:37:31;102761.00;;;3.00
68939;BMP180;59064;45.294;11.816;2023-02-15T01:39:57;102759.80;;;2.90
68939;BMP180;59064;45.294;11.816;2023-02-15T01:42:24;102756.80;;;2.70
68939;BMP180;59064;45.294;11.816;2023-02-15T01:45:04;102749.40;;;2.60
68939;BMP180;59064;45.294;11.816;2023-02-15T01:47:41;102750.00;;;2.60
68939;BMP180;59064;45.294;11.816;2023-02-15T01:53:03;102743.00;;;2.50
68939;BMP180;59064;45.294;11.816;2023-02-15T01:55:34;102746.00;;;2.40
68939;BMP180;59064;45.294;11.816;2023-02-15T01:58:02;102734.40;;;2.40
68939;BMP180;59064;45.294;11.816;2023-02-15T02:00:28;102736.00;;;2.40
68939;BMP180;59064;45.294;11.816;2023-02-15T02:02:56;102735.00;;;2.36
68939;BMP180;59064;45.294;11.816;2023-02-15T02:05:22;102724.20;;;2.30
68939;BMP180;59064;45.294;11.816;2023-02-15T02:07:50;102723.20;;;2.30
68939;BMP180;59064;45.294;11.816;2023-02-15T02:10:21;102724.40;;;2.20
68939;BMP180;59064;45.294;11.816;2023-02-15T02:12:50;102717.60;;;2.16
68939;BMP180;59064;45.294;11.816;2023-02-15T02:15:17;102721.40;;;2.10
68939;BMP180;59064;45.294;11.816;2023-02-15T02:37:13;102705.60;;;1.96
68939;BMP180;59064;45.294;11.816;2023-02-15T02:39:54;102718.00;;;2.00
68939;BMP180;59064;45.294;11.816;2023-02-15T02:42:42;102717.60;;;2.00
68939;BMP180;59064;45.294;11.816;2023-02-15T02:45:34;102717.00;;;2.10
68939;BMP180;59064;45.294;11.816;2023-02-15T02:48:25;102712.80;;;2.10
68939;BMP180;59064;45.294;11.816;2023-02-15T02:50:52;102710.40;;;2.10
68939;BMP180;59064;45.294;11.816;2023-02-15T02:53:18;102713.00;;;2.10
68939;BMP180;59064;45.294;11.816;2023-02-15T02:55:56;102712.80;;;2.10
68939;BMP180;59064;45.294;11.816;2023-02-15T02:58:33;102711.40;;;2.10
68939;BMP180;59064;45.294;11.816;2023-02-15T03:01:09;102712.40;;;2.06
68939;BMP180;59064;45.294;11.816;2023-02-15T03:03:55;102710.40;;;2.00
68939;BMP180;59064;45.294;11.816;2023-02-15T03:06:30;102707.20;;;1.90
68939;BMP180;59064;45.294;11.816;2023-02-15T03:09:06;102703.20;;;1.90
68939;BMP180;59064;45.294;11.816;2023-02-15T03:11:43;102706.20;;;1.80
68939;BMP180;59064;45.294;11.816;2023-02-15T03:14:09;102705.60;;;1.80
68939;BMP180;59064;45.294;11.816;2023-02-15T03:16:36;102705.60;;;1.70
68939;BMP180;59064;45.294;11.816;2023-02-15T03:19:11;102704.40;;;1.70
68939;BMP180;59064;45.294;11.816;2023-02-15T03:21:48;102702.40;;;1.70
68939;BMP180;59064;45.294;11.816;2023-02-15T03:24:26;102699.60;;;1.70
68939;BMP180;59064;45.294;11.816;2023-02-15T03:26:54;102700.80;;;1.70
68939;BMP180;59064;45.294;11.816;2023-02-15T03:29:24;102699.40;;;1.68
68939;BMP180;59064;45.294;11.816;2023-02-15T03:32:00;102694.20;;;1.60
68939;BMP180;59064;45.294;11.816;2023-02-15T03:34:27;102690.00;;;1.60
68939;BMP180;59064;45.294;11.816;2023-02-15T03:37:24;102693.60;;;1.70
68939;BMP180;59064;45.294;11.816;2023-02-15T03:39:56;102696.40;;;1.70
68939;BMP180;59064;45.294;11.816;2023-02-15T03:42:45;102691.80;;;1.84
68939;BMP180;59064;45.294;11.816;2023-02-15T03:45:16;102694.00;;;1.90
68939;BMP180;59064;45.294;11.816;2023-02-15T03:47:45;102701.00;;;2.00
68939;BMP180;59064;45.294;11.816;2023-02-15T03:50:22;102700.40;;;2.10
68939;BMP180;59064;45.294;11.816;2023-02-15T03:53:10;102696.60;;;2.12
68939;BMP180;59064;45.294;11.816;2023-02-15T03:55:37;102700.40;;;2.20
68939;BMP180;59064;45.294;11.816;2023-02-15T03:58:03;102700.20;;;2.20
68939;BMP180;59064;45.294;11.816;2023-02-15T04:01:04;102701.80;;;2.20
68939;BMP180;59064;45.294;11.816;2023-02-15T04:03:57;102698.60;;;2.30
68939;BMP180;59064;45.294;11.816;2023-02-15T04:06:24;102702.80;;;2.30
68939;BMP180;59064;45.294;11.816;2023-02-15T04:08:50;102699.20;;;2.20
68939;BMP180;59064;45.294;11.816;2023-02-15T04:11:34;102698.20;;;2.10
68939;BMP180;59064;45.294;11.816;2023-02-15T04:13:59;102702.40;;;2.10
68939;BMP180;59064;45.294;11.816;2023-02-15T04:16:45;102698.60;;;2.10
68939;BMP180;59064;45.294;11.816;2023-02-15T04:19:10;102699.60;;;2.10
68939;BMP180;59064;45.294;11.816;2023-02-15T04:21:54;102701.00;;;1.98
68939;BMP180;59064;45.294;11.816;2023-02-15T04:24:39;102696.80;;;1.84
68939;BMP180;59064;45.294;11.816;2023-02-15T04:27:23;102704.60;;;1.70
68939;BMP180;59064;45.294;11.816;2023-02-15T04:29:48;102698.40;;;1.70
68939;BMP180;59064;45.294;11.816;2023-02-15T04:32:15;102696.80;;;1.70
68939;BMP180;59064;45.294;11.816;2023-02-15T04:34:40;102689.40;;;1.60
68939;BMP180;59064;45.294;11.816;2023-02-15T04:37:06;102684.60;;;1.50
68939;BMP180;59064;45.294;11.816;2023-02-15T04:39:31;102685.20;;;1.50
68939;BMP180;59064;45.294;11.816;2023-02-15T04:41:57;102686.00;;;1.50
68939;BMP180;59064;45.294;11.816;2023-02-15T04:44:22;102684.20;;;1.46
68939;BMP180;59064;45.294;11.816;2023-02-15T04:46:48;102684.60;;;1.30
68939;BMP180;59064;45.294;11.816;2023-02-15T04:49:14;102686.00;;;1.30
68939;BMP180;59064;45.294;11.816;2023-02-15T04:51:40;102683.40;;;1.20
68939;BMP180;59064;45.294;11.816;2023-02-15T04:54:05;102681.80;;;1.10
68939;BMP180;59064;45.294;11.816;2023-02-15T04:56:31;102681.80;;;1.06
68939;BMP180;59064;45.294;11.816;2023-02-15T04:58:58;102679.60;;;1.00
68939;BMP180;59064;45.294;11.816;2023-02-15T05:01:23;102679.20;;;0.96
68939;BMP180;59064;45.294;11.816;2023-02-15T05:03:49;102679.40;;;0.90
68939;BMP180;59064;45.294;11.816;2023-02-15T05:06:14;102679.20;;;0.90
68939;BMP180;59064;45.294;11.816;2023-02-15T05:08:40;102686.40;;;0.80
68939;BMP180;59064;45.294;11.816;2023-02-15T05:11:06;102687.00;;;0.70
68939;BMP180;59064;45.294;11.816;2023-02-15T05:13:32;102684.00;;;0.70
68939;BMP180;59064;45.294;11.816;2023-02-15T05:15:57;102684.00;;;0.64
68939;BMP180;59064;45.294;11.816;2023-02-15T05:18:23;102687.40;;;0.60
68939;BMP180;59064;45.294;11.816;2023-02-15T05:20:49;102689.20;;;0.60
68939;BMP180;59064;45.294;11.816;2023-02-15T05:23:15;102689.40;;;0.60
68939;BMP180;59064;45.294;11.816;2023-02-15T05:25:40;102689.80;;;0.52
68939;BMP180;59064;45.294;11.816;2023-02-15T05:28:27;102688.20;;;0.52
68939;BMP180;59064;45.294;11.816;2023-02-15T05:31:12;102690.20;;;0.56
68939;BMP180;59064;45.294;11.816;2023-02-15T05:33:38;102688.20;;;0.60
68939;BMP180;59064;45.294;11.816;2023-02-15T05:36:05;102685.80;;;0.60
68939;BMP180;59064;45.294;11.816;2023-02-15T05:38:31;102687.20;;;0.60
68939;BMP180;59064;45.294;11.816;2023-02-15T05:40:57;102688.80;;;0.60
68939;BMP180;59064;45.294;11.816;2023-02-15T05:43:22;102687.00;;;0.62
68939;BMP180;59064;45.294;11.816;2023-02-15T05:45:53;102686.80;;;0.70
68939;BMP180;59064;45.294;11.816;2023-02-15T05:48:20;102689.40;;;0.80
68939;BMP180;59064;45.294;11.816;2023-02-15T05:50:46;102687.60;;;0.80
68939;BMP180;59064;45.294;11.816;2023-02-15T05:53:21;102687.00;;;0.90
68939;BMP180;59064;45.294;11.816;2023-02-15T05:55:47;102688.60;;;0.88
68939;BMP180;59064;45.294;11.816;2023-02-15T05:58:12;102686.40;;;0.80
68939;BMP180;59064;45.294;11.816;2023-02-15T06:00:38;102687.40;;;0.80
68939;BMP180;59064;45.294;11.816;2023-02-15T06:03:03;102695.60;;;0.70
68939;BMP180;59064;45.294;11.816;2023-02-15T06:05:29;102701.60;;;0.70
68939;BMP180;59064;45.294;11.816;2023-02-15T06:07:54;102704.80;;;0.70
68939;BMP180;59064;45.294;11.816;2023-02-15T06:10:20;102704.20;;;0.70
68939;BMP180;59064;45.294;11.816;2023-02-15T06:12:46;102709.20;;;0.70
68939;BMP180;59064;45.294;11.816;2023-02-15T06:15:11;102712.00;;;0.70
68939;BMP180;59064;45.294;11.816;2023-02-15T06:17:37;102716.40;;;0.70
68939;BMP180;59064;45.294;11.816;2023-02-15T06:20:03;102712.20;;;0.70
68939;BMP180;59064;45.294;11.816;2023-02-15T06:22:29;102718.40;;;0.70
68939;BMP180;59064;45.294;11.816;2023-02-15T06:24:55;102723.60;;;0.70
68939;BMP180;59064;45.294;11.816;2023-02-15T06:27:20;102721.60;;;0.80
68939;BMP180;59064;45.294;11.816;2023-02-15T06:29:46;102723.60;;;0.82
68939;BMP180;59064;45.294;11.816;2023-02-15T06:32:11;102724.00;;;0.90
68939;BMP180;59064;45.294;11.816;2023-02-15T06:34:37;102724.60;;;1.00
68939;BMP180;59064;45.294;11.816;2023-02-15T06:37:02;102732.20;;;1.00
68939;BMP180;59064;45.294;11.816;2023-02-15T06:39:28;102729.00;;;1.00
68939;BMP180;59064;45.294;11.816;2023-02-15T06:41:53;102728.80;;;1.00
68939;BMP180;59064;45.294;11.816;2023-02-15T06:44:19;102727.80;;;1.00
68939;BMP180;59064;45.294;11.816;2023-02-15T06:46:44;102726.20;;;1.00
68939;BMP180;59064;45.294;11.816;2023-02-15T06:49:10;102728.20;;;1.10
68939;BMP180;59064;45.294;11.816;2023-02-15T06:51:35;102725.20;;;1.10
68939;BMP180;59064;45.294;11.816;2023-02-15T06:54:01;102721.00;;;1.20
68939;BMP180;59064;45.294;11.816;2023-02-15T06:56:27;102721.60;;;1.20
68939;BMP180;59064;45.294;11.816;2023-02-15T06:58:52;102722.40;;;1.30
68939;BMP180;59064;45.294;11.816;2023-02-15T07:01:18;102722.60;;;1.40
68939;BMP180;59064;45.294;11.816;2023-02-15T07:03:44;102724.40;;;1.50
68939;BMP180;59064;45.294;11.816;2023-02-15T07:06:09;102725.00;;;1.62
68939;BMP180;59064;45.294;11.816;2023-02-15T07:08:36;102720.80;;;1.70
68939;BMP180;59064;45.294;11.816;2023-02-15T07:11:02;102716.40;;;1.86
68939;BMP180;59064;45.294;11.816;2023-02-15T07:13:46;102716.80;;;1.94
68939;BMP180;59064;45.294;11.816;2023-02-15T07:16:12;102717.00;;;2.02
68939;BMP180;59064;45.294;11.816;2023-02-15T07:18:39;102720.00;;;2.10
68939;BMP180;59064;45.294;11.816;2023-02-15T07:21:06;102728.60;;;2.30
68939;BMP180;59064;45.294;11.816;2023-02-15T07:23:38;102727.80;;;2.58
68939;BMP180;59064;45.294;11.816;2023-02-15T07:26:05;102732.40;;;2.82
68939;BMP180;59064;45.294;11.816;2023-02-15T07:28:31;102736.80;;;3.12
68939;BMP180;59064;45.294;11.816;2023-02-15T07:30:57;102737.60;;;3.40
68939;BMP180;59064;45.294;11.816;2023-02-15T07:33:23;102737.00;;;3.60
68939;BMP180;59064;45.294;11.816;2023-02-15T07:38:14;102735.80;;;4.00
68939;BMP180;59064;45.294;11.816;2023-02-15T07:40:39;102739.00;;;4.20
68939;BMP180;59064;45.294;11.816;2023-02-15T07:43:05;102741.20;;;4.40
68939;BMP180;59064;45.294;11.816;2023-02-15T07:45:30;102744.40;;;4.60
68939;BMP180;59064;45.294;11.816;2023-02-15T07:47:56;102743.00;;;4.82
68939;BMP180;59064;45.294;11.816;2023-02-15T07:50:22;102739.80;;;5.00
68939;BMP180;59064;45.294;11.816;2023-02-15T07:52:47;102734.40;;;5.10
68939;BMP180;59064;45.294;11.816;2023-02-15T07:55:13;102734.40;;;5.40
68939;BMP180;59064;45.294;11.816;2023-02-15T07:57:46;102733.80;;;5.70
68939;BMP180;59064;45.294;11.816;2023-02-15T08:00:14;102732.20;;;6.04
68939;BMP180;59064;45.294;11.816;2023-02-15T08:02:41;102731.20;;;6.40
68939;BMP180;59064;45.294;11.816;2023-02-15T08:05:07;102734.00;;;6.60
68939;BMP180;59064;45.294;11.816;2023-02-15T08:07:33;102735.80;;;6.82
68939;BMP180;59064;45.294;11.816;2023-02-15T08:09:58;102738.20;;;7.10
68939;BMP180;59064;45.294;11.816;2023-02-15T08:12:28;102742.60;;;7.26
68939;BMP180;59064;45.294;11.816;2023-02-15T08:14:53;102749.60;;;7.40
68939;BMP180;59064;45.294;11.816;2023-02-15T08:17:19;102742.60;;;7.50
68939;BMP180;59064;45.294;11.816;2023-02-15T08:19:44;102747.40;;;7.60
68939;BMP180;59064;45.294;11.816;2023-02-15T08:22:13;102745.20;;;7.50
68939;BMP180;59064;45.294;11.816;2023-02-15T08:24:39;102744.00;;;7.40
68939;BMP180;59064;45.294;11.816;2023-02-15T08:27:08;102739.00;;;7.40
68939;BMP180;59064;45.294;11.816;2023-02-15T08:29:35;102737.80;;;7.50
68939;BMP180;59064;45.294;11.816;2023-02-15T08:32:09;102739.00;;;7.60
68939;BMP180;59064;45.294;11.816;2023-02-15T08:34:38;102739.00;;;7.80
68939;BMP180;59064;45.294;11.816;2023-02-15T08:37:04;102737.60;;;8.10
68939;BMP180;59064;45.294;11.816;2023-02-15T08:39:31;102739.40;;;8.40
68939;BMP180;59064;45.294;11.816;2023-02-15T08:41:56;102740.00;;;8.68
68939;BMP180;59064;45.294;11.816;2023-02-15T08:44:22;102739.60;;;8.94
68939;BMP180;59064;45.294;11.816;2023-02-15T08:46:48;102743.80;;;9.10
68939;BMP180;59064;45.294;11.816;2023-02-15T08:49:19;102747.40;;;9.26
68939;BMP180;59064;45.294;11.816;2023-02-15T08:51:46;102744.60;;;9.52
68939;BMP180;59064;45.294;11.816;2023-02-15T08:54:14;102742.20;;;9.72
68939;BMP180;59064;45.294;11.816;2023-02-15T08:56:41;102740.60;;;10.08
68939;BMP180;59064;45.294;11.816;2023-02-15T08:59:13;102740.60;;;10.52
68939;BMP180;59064;45.294;11.816;2023-02-15T09:01:39;102742.40;;;10.84
68939;BMP180;59064;45.294;11.816;2023-02-15T09:04:06;102741.20;;;11.26
68939;BMP180;59064;45.294;11.816;2023-02-15T09:06:36;102744.40;;;11.50
68939;BMP180;59064;45.294;11.816;2023-02-15T09:09:02;102744.40;;;11.50
68939;BMP180;59064;45.294;11.816;2023-02-15T09:11:32;102744.00;;;11.56
68939;BMP180;59064;45.294;11.816;2023-02-15T09:14:06;102751.00;;;11.70
68939;BMP180;59064;45.294;11.816;2023-02-15T09:16:35;102752.40;;;11.90
68939;BMP180;59064;45.294;11.816;2023-02-15T09:19:01;102751.80;;;12.10
68939;BMP180;59064;45.294;11.816;2023-02-15T09:21:28;102749.80;;;12.20
68939;BMP180;59064;45.294;11.816;2023-02-15T09:23:59;102751.40;;;12.42
68939;BMP180;59064;45.294;11.816;2023-02-15T09:26:26;102747.00;;;12.58
68939;BMP180;59064;45.294;11.816;2023-02-15T09:28:55;102749.40;;;12.74
68939;BMP180;59064;45.294;11.816;2023-02-15T09:31:24;102748.80;;;13.04
68939;BMP180;59064;45.294;11.816;2023-02-15T09:33:50;102757.80;;;13.36
68939;BMP180;59064;45.294;11.816;2023-02-15T09:38:50;102756.20;;;13.90
68939;BMP180;59064;45.294;11.816;2023-02-15T09:55:06;102755.60;;;13.70
68939;BMP180;59064;45.294;11.816;2023-02-15T09:57:57;102758.40;;;13.70
68939;BMP180;59064;45.294;11.816;2023-02-15T10:06:32;102758.80;;;13.40
68939;BMP180;59064;45.294;11.816;2023-02-15T10:12:06;102756.60;;;13.50
68939;BMP180;59064;45.294;11.816;2023-02-15T10:28:23;102744.80;;;13.00
68939;BMP180;59064;45.294;11.816;2023-02-15T10:30:56;102743.40;;;13.10
68939;BMP180;59064;45.294;11.816;2023-02-15T10:39:19;102739.80;;;13.60
68939;BMP180;59064;45.294;11.816;2023-02-15T10:47:45;102730.00;;;14.18
68939;BMP180;59064;45.294;11.816;2023-02-15T10:50:26;102724.00;;;14.46
68939;BMP180;59064;45.294;11.816;2023-02-15T10:53:24;102722.00;;;14.80
68939;BMP180;59064;45.294;11.816;2023-02-15T11:06:35;102704.80;;;16.00
68939;BMP180;59064;45.294;11.816;2023-02-15T11:09:04;102703.40;;;16.18
68939;BMP180;59064;45.294;11.816;2023-02-15T11:11:37;102704.40;;;16.30
68939;BMP180;59064;45.294;11.816;2023-02-15T11:14:20;102696.60;;;16.44
68939;BMP180;59064;45.294;11.816;2023-02-15T11:16:51;102698.80;;;16.70
68939;BMP180;59064;45.294;11.816;2023-02-15T11:21:48;102695.20;;;17.02
68939;BMP180;59064;45.294;11.816;2023-02-15T11:24:17;102699.60;;;17.30
68939;BMP180;59064;45.294;11.816;2023-02-15T11:26:46;102690.80;;;17.50
68939;BMP180;59064;45.294;11.816;2023-02-15T11:31:53;102687.80;;;17.70
68939;BMP180;59064;45.294;11.816;2023-02-15T11:34:38;102679.60;;;17.76
68939;BMP180;59064;45.294;11.816;2023-02-15T11:37:17;102679.40;;;17.90
68939;BMP180;59064;45.294;11.816;2023-02-15T11:39:43;102673.20;;;18.10
68939;BMP180;59064;45.294;11.816;2023-02-15T11:42:21;102675.00;;;18.30
68939;BMP180;59064;45.294;11.816;2023-02-15T11:45:04;102662.40;;;18.46
68939;BMP180;59064;45.294;11.816;2023-02-15T11:47:39;102662.00;;;18.50
68939;BMP180;59064;45.294;11.816;2023-02-15T11:50:10;102662.40;;;18.30
68939;BMP180;59064;45.294;11.816;2023-02-15T11:52:36;102659.00;;;18.30
68939;BMP180;59064;45.294;11.816;2023-02-15T11:55:01;102658.20;;;18.48
68939;BMP180;59064;45.294;11.816;2023-02-15T11:57:38;102657.40;;;18.62
68939;BMP180;59064;45.294;11.816;2023-02-15T12:02:57;102654.60;;;18.98
68939;BMP180;59064;45.294;11.816;2023-02-15T12:05:24;102655.20;;;19.20
68939;BMP180;59064;45.294;11.816;2023-02-15T12:08:10;102651.00;;;19.52
68939;BMP180;59064;45.294;11.816;2023-02-15T12:13:26;102647.40;;;20.22
68939;BMP180;59064;45.294;11.816;2023-02-15T12:15:54;102649.00;;;20.40
68939;BMP180;59064;45.294;11.816;2023-02-15T12:21:00;102649.80;;;20.26
68939;BMP180;59064;45.294;11.816;2023-02-15T12:23:28;102646.60;;;20.46
68939;BMP180;59064;45.294;11.816;2023-02-15T12:25:56;102642.60;;;20.70
68939;BMP180;59064;45.294;11.816;2023-02-15T12:30:53;102635.80;;;20.66
68939;BMP180;59064;45.294;11.816;2023-02-15T12:33:27;102633.60;;;21.00
68939;BMP180;59064;45.294;11.816;2023-02-15T12:38:27;102627.20;;;21.40
68939;BMP180;59064;45.294;11.816;2023-02-15T12:40:58;102618.80;;;21.66
68939;BMP180;59064;45.294;11.816;2023-02-15T12:43:33;102617.40;;;21.96
68939;BMP180;59064;45.294;11.816;2023-02-15T12:48:46;102615.00;;;22.50
68939;BMP180;59064;45.294;11.816;2023-02-15T12:51:14;102613.80;;;22.70
68939;BMP180;59064;45.294;11.816;2023-02-15T12:53:41;102613.20;;;22.68
68939;BMP180;59064;45.294;11.816;2023-02-15T12:56:09;102613.80;;;22.50
68939;BMP180;59064;45.294;11.816;2023-02-15T12:58:35;102605.00;;;22.68
68939;BMP180;59064;45.294;11.816;2023-02-15T13:01:16;102603.20;;;22.80
68939;BMP180;59064;45.294;11.816;2023-02-15T13:04:06;102598.00;;;22.90
68939;BMP180;59064;45.294;11.816;2023-02-15T13:06:36;102598.40;;;22.78
68939;BMP180;59064;45.294;11.816;2023-02-15T13:09:18;102598.40;;;22.64
68939;BMP180;59064;45.294;11.816;2023-02-15T13:11:45;102601.40;;;22.80
68939;BMP180;59064;45.294;11.816;2023-02-15T13:14:18;102596.60;;;22.90
68939;BMP180;59064;45.294;11.816;2023-02-15T13:16:46;102598.00;;;23.20
68939;BMP180;59064;45.294;11.816;2023-02-15T13:21:48;102589.20;;;23.00
68939;BMP180;59064;45.294;11.816;2023-02-15T13:24:20;102585.00;;;22.68
68939;BMP180;59064;45.294;11.816;2023-02-15T13:26:48;102587.80;;;22.50
68939;BMP180;59064;45.294;11.816;2023-02-15T13:31:53;102582.00;;;22.38
68939;BMP180;59064;45.294;11.816;2023-02-15T13:34:39;102583.80;;;22.30
68939;BMP180;59064;45.294;11.816;2023-02-15T13:37:33;102580.40;;;22.44
68939;BMP180;59064;45.294;11.816;2023-02-15T13:40:08;102583.20;;;22.30
68939;BMP180;59064;45.294;11.816;2023-02-15T13:42:56;102583.40;;;22.30
68939;BMP180;59064;45.294;11.816;2023-02-15T13:45:39;102582.40;;;22.10
68939;BMP180;59064;45.294;11.816;2023-02-15T13:51:33;102579.60;;;22.08
68939;BMP180;59064;45.294;11.816;2023-02-15T13:57:46;102579.60;;;22.32
68939;BMP180;59064;45.294;11.816;2023-02-15T14:06:23;102577.80;;;22.06
68939;BMP180;59064;45.294;11.816;2023-02-15T14:29:15;102568.60;;;20.90
68939;BMP180;59064;45.294;11.816;2023-02-15T14:31:45;102569.40;;;20.90
68939;BMP180;59064;45.294;11.816;2023-02-15T14:34:34;102570.20;;;20.80
68939;BMP180;59064;45.294;11.816;2023-02-15T14:37:10;102570.40;;;20.80
68939;BMP180;59064;45.294;11.816;2023-02-15T14:43:08;102571.80;;;21.28
68939;BMP180;59064;45.294;11.816;2023-02-15T14:50:49;102572.20;;;22.00
68939;BMP180;59064;45.294;11.816;2023-02-15T14:58:58;102569.20;;;22.00
68939;BMP180;59064;45.294;11.816;2023-02-15T15:01:33;102568.80;;;21.90
68939;BMP180;59064;45.294;11.816;2023-02-15T15:04:04;102564.60;;;21.80
68939;BMP180;59064;45.294;11.816;2023-02-15T15:06:33;102565.00;;;21.60
68939;BMP180;59064;45.294;11.816;2023-02-15T15:09:19;102563.40;;;21.46
68939;BMP180;59064;45.294;11.816;2023-02-15T15:11:50;102564.80;;;21.40
68939;BMP180;59064;45.294;11.816;2023-02-15T15:17:01;102567.60;;;21.26
68939;BMP180;59064;45.294;11.816;2023-02-15T15:22:18;102568.40;;;21.28
68939;BMP180;59064;45.294;11.816;2023-02-15T15:32:47;102562.20;;;21.00
68939;BMP180;59064;45.294;11.816;2023-02-15T15:49:10;102552.80;;;20.10
68939;BMP180;59064;45.294;11.816;2023-02-15T15:51:40;102553.80;;;20.00
68939;BMP180;59064;45.294;11.816;2023-02-15T15:54:14;102561.00;;;19.82
68939;BMP180;59064;45.294;11.816;2023-02-15T15:56:44;102557.00;;;19.70
68939;BMP180;59064;45.294;11.816;2023-02-15T15:59:18;102557.20;;;19.46
68939;BMP180;59064;45.294;11.816;2023-02-15T16:01:45;102553.40;;;19.18
68939;BMP180;59064;45.294;11.816;2023-02-15T16:04:14;102548.60;;;18.90
68939;BMP180;59064;45.294;11.816;2023-02-15T16:06:46;102552.00;;;18.60
68939;BMP180;59064;45.294;11.816;2023-02-15T16:09:30;102555.80;;;18.30
68939;BMP180;59064;45.294;11.816;2023-02-15T16:11:57;102551.00;;;18.00
68939;BMP180;59064;45.294;11.816;2023-02-15T16:14:26;102551.80;;;17.70
68939;BMP180;59064;45.294;11.816;2023-02-15T16:16:56;102552.60;;;17.40
68939;BMP180;59064;45.294;11.816;2023-02-15T16:19:38;102556.00;;;17.08
68939;BMP180;59064;45.294;11.816;2023-02-15T16:22:11;102552.60;;;16.70
68939;BMP180;59064;45.294;11.816;2023-02-15T16:29:46;102546.40;;;15.70
68939;BMP180;59064;45.294;11.816;2023-02-15T16:32:20;102549.80;;;15.40
68939;BMP180;59064;45.294;11.816;2023-02-15T16:34:59;102551.60;;;15.08
68939;BMP180;59064;45.294;11.816;2023-02-15T16:37:31;102548.20;;;14.70
68939;BMP180;59064;45.294;11.816;2023-02-15T16:39:57;102546.00;;;14.40
68939;BMP180;59064;45.294;11.816;2023-02-15T16:42:23;102542.40;;;14.10
68939;BMP180;59064;45.294;11.816;2023-02-15T16:45:03;102546.80;;;13.90
68939;BMP180;59064;45.294;11.816;2023-02-15T16:47:33;102548.60;;;13.66
68939;BMP180;59064;45.294;11.816;2023-02-15T16:50:03;102551.60;;;13.50
68939;BMP180;59064;45.294;11.816;2023-02-15T16:52:29;102545.60;;;13.30
68939;BMP180;59064;45.294;11.816;2023-02-15T16:55:00;102546.40;;;13.10
68939;BMP180;59064;45.294;11.816;2023-02-15T16:57:31;102547.20;;;13.00
68939;BMP180;59064;45.294;11.816;2023-02-15T17:00:05;102545.00;;;12.80
68939;BMP180;59064;45.294;11.816;2023-02-15T17:02:32;102542.20;;;12.70
68939;BMP180;59064;45.294;11.816;2023-02-15T17:05:16;102543.00;;;12.60
68939;BMP180;59064;45.294;11.816;2023-02-15T17:08:05;102542.20;;;12.50
68939;BMP180;59064;45.294;11.816;2023-02-15T17:10:35;102545.80;;;12.40
68939;BMP180;59064;45.294;11.816;2023-02-15T17:13:15;102546.40;;;12.30
68939;BMP180;59064;45.294;11.816;2023-02-15T17:19:08;102551.40;;;12.00
68939;BMP180;59064;45.294;11.816;2023-02-15T17:21:40;102547.60;;;11.86
68939;BMP180;59064;45.294;11.816;2023-02-15T17:24:47;102556.80;;;11.78
68939;BMP180;59064;45.294;11.816;2023-02-15T17:27:16;102557.80;;;11.60
68939;BMP180;59064;45.294;11.816;2023-02-15T17:29:50;102564.20;;;11.48